Alat, Azerbaijan

9:25 PM AZST on July 12, 2014 (GMT +0500)
Bina (UBBB) Elev 0 ft | 40.45 °N, 50.07 °E | Change Station

Current weather conditions updated 25 minutes ago

Clear
Clear
86 °F
Feels Like 86 °F
N
0
Wind Variable Wind from North

Tomorrow is forecast to be Warmer than today.

Today
High -- | Low -- °F
--% Chance of Precip.
Yesterday
High -- | Low -- °F
Precip. -- in
6:23 AM 9:11 PM
Full, 100% visible
Pressure 29.80 in
Visibility -9999.0 miles
Clouds
Heat Index 86 °F
Dew Point 61 °F
Humidity 43%
Rainfall 0.00 in
Snow Depth Not available.
UV Not available.
Pollen Not available.
Air Quality Not available.
Flu Activity Not available.
METAR UBBB 121600Z 00000KT CAVOK 30/16 Q1009 88CLRD70 NOSIG

More Conditions Fewer Conditions

Pressure 29.80 in
Visibility -9999.0 miles
Clouds
Heat Index 86 °F
Dew Point 61 °F
Humidity 43%
Rainfall 0.00 in
Snow Depth Not available.
UV Not available.
Pollen Not available.
Air Quality Not available.
Flu Activity Not available.
METAR UBBB 121600Z 00000KT CAVOK 30/16 Q1009 88CLRD70 NOSIG

More Conditions Fewer Conditions

10-Day Weather Forecast

Almanac

Astronomy

Jul. 12, 2014 Rise Set
Actual Time 6:23 AM AZST 9:11 PM AZST
Civil Twilight 5:51 AM AZST 9:43 PM AZST
Nautical Twilight 5:11 AM AZST 10:24 PM AZST
Astronomical Twilight 4:25 AM AZST 11:10 PM AZST
Moon 8:54 PM AZST 6:16 AM AZST
Length of Visible Light 15h 52m
Length of Day
14h 48m
Tomorrow will be 1m 12s shorter.
Full, 100% of the Moon is Illuminated
Today
Full
Jul 18
Last Quarter
Jul 26
New
Aug 3
First Quarter
Aug 10
Full

Today's Extremes

Country Highs Country Lows

Community

WunderPhotos

Upload Photos

1,732,870 photos uploaded!

WunderBlogs® & News

By Dr. Jeff Masters
Director of Meteorology, Weather Underground
By Kari Strenfel
Meteorologist, Weather Underground
By Christopher C. Burt
Weather Historian, Weather Underground
July 12, 2014
July 12, 2014
July 12, 2014

Nearby

Snow Depth

Not available.

Earthquake Activity

City Distance Mag. Time & Date
No recent earthquake activity has been reported nearby.
Minimum magnitude displayed is 2.5.

Coastal Water Temperatures

Place Temperature
No Stations Reporting

Nearby Weather Stations

There are no personal weather stations in this area.